createdAt,value
2024-01-15T00:00:36.091Z,89.12
2024-01-15T00:03:03.203Z,89.60
2024-01-15T00:05:30.148Z,90.03
2024-01-15T00:07:57.051Z,89.54
2024-01-15T00:10:24.953Z,89.63
2024-01-15T00:12:58.018Z,89.13
2024-01-15T00:15:25.429Z,89.77
2024-01-15T00:17:55.343Z,91.02
2024-01-15T00:20:22.546Z,91.60
2024-01-15T00:22:49.454Z,91.74
2024-01-15T00:25:16.517Z,91.17
2024-01-15T00:27:43.456Z,91.59
2024-01-15T00:30:11.191Z,91.77
2024-01-15T00:32:38.200Z,90.87
2024-01-15T00:35:05.994Z,90.42
2024-01-15T00:37:33.169Z,90.42
2024-01-15T00:40:00.356Z,90.82
2024-01-15T00:42:27.819Z,91.40
2024-01-15T00:44:58.613Z,91.49
2024-01-15T00:47:26.150Z,91.33
2024-01-15T00:49:53.172Z,91.13
2024-01-15T00:52:20.185Z,91.57
2024-01-15T00:54:47.226Z,90.99
2024-01-15T00:57:14.261Z,90.67
2024-01-15T00:59:41.944Z,91.68
2024-01-15T01:02:09.216Z,91.87
2024-01-15T01:04:39.234Z,93.82
2024-01-15T01:07:06.071Z,94.63
2024-01-15T01:09:33.188Z,94.87
2024-01-15T01:12:00.343Z,95.17
2024-01-15T01:14:27.404Z,94.71
2024-01-15T01:16:54.377Z,93.96
2024-01-15T01:19:22.024Z,93.72
2024-01-15T01:21:49.052Z,93.37
2024-01-15T01:24:16.388Z,93.28
2024-01-15T01:26:43.775Z,93.30
2024-01-15T01:29:10.919Z,94.57
2024-01-15T01:31:37.969Z,93.99
2024-01-15T01:34:05.232Z,94.53
2024-01-15T01:36:32.971Z,92.68
2024-01-15T01:38:59.875Z,92.48
2024-01-15T01:41:27.003Z,92.04
2024-01-15T01:43:53.849Z,92.36
2024-01-15T01:46:20.860Z,92.71
2024-01-15T01:48:47.754Z,92.41
2024-01-15T01:51:17.875Z,93.36
2024-01-15T01:53:47.271Z,93.08
2024-01-15T01:56:15.573Z,93.33
2024-01-15T01:58:43.187Z,92.27
2024-01-15T02:01:10.496Z,92.70
2024-01-15T02:03:37.805Z,91.59
2024-01-15T02:06:05.161Z,91.90
2024-01-15T02:08:32.354Z,92.19
2024-01-15T02:10:59.632Z,91.66
2024-01-15T02:13:26.787Z,91.88
2024-01-15T02:15:53.747Z,91.68
2024-01-15T02:18:24.220Z,92.03
2024-01-15T02:20:51.197Z,91.72
2024-01-15T02:23:18.350Z,91.90
2024-01-15T02:25:47.268Z,91.32
2024-01-15T02:28:17.543Z,92.54
2024-01-15T02:30:45.414Z,90.65
2024-01-15T02:33:14.103Z,92.56
2024-01-15T02:35:41.949Z,90.62
2024-01-15T02:38:09.509Z,91.66
2024-01-15T02:40:37.250Z,92.07
2024-01-15T02:43:06.790Z,92.06
2024-01-15T02:45:34.412Z,92.35
2024-01-15T02:48:10.073Z,91.53
2024-01-15T02:50:37.453Z,92.20
2024-01-15T02:53:07.483Z,91.51
2024-01-15T02:55:34.354Z,90.85
2024-01-15T02:58:04.107Z,91.44
2024-01-15T03:00:30.988Z,91.69
2024-01-15T03:03:00.958Z,92.57
2024-01-15T03:05:28.309Z,91.73
2024-01-15T03:07:58.485Z,90.81
2024-01-15T03:10:25.315Z,90.89
2024-01-15T03:12:52.246Z,90.18
2024-01-15T03:15:19.945Z,91.03
2024-01-15T03:17:46.982Z,90.50
2024-01-15T03:20:13.945Z,91.59
2024-01-15T03:22:41.026Z,90.88
2024-01-15T03:25:08.580Z,91.27
2024-01-15T03:27:38.380Z,89.47
2024-01-15T03:30:05.845Z,89.86
2024-01-15T03:32:33.100Z,89.22
2024-01-15T03:35:00.144Z,90.38
2024-01-15T03:37:27.420Z,89.81
2024-01-15T03:39:54.517Z,90.59
2024-01-15T03:42:24.550Z,89.79
2024-01-15T03:44:51.743Z,90.75
2024-01-15T03:47:18.581Z,90.10
2024-01-15T03:49:46.264Z,90.30
2024-01-15T03:52:13.262Z,91.60
2024-01-15T03:54:40.397Z,91.32
2024-01-15T03:57:07.322Z,90.81
2024-01-15T03:59:34.107Z,90.64
2024-01-15T04:02:00.984Z,91.26
2024-01-15T04:04:28.127Z,90.56
2024-01-15T04:06:55.122Z,90.24
2024-01-15T04:09:22.029Z,90.12
2024-01-15T04:11:48.891Z,90.55
2024-01-15T04:14:15.788Z,90.67
2024-01-15T04:16:45.926Z,89.73
2024-01-15T04:19:12.886Z,89.65
2024-01-15T04:21:40.490Z,90.64
2024-01-15T04:24:07.648Z,90.17
2024-01-15T04:26:34.978Z,89.80
2024-01-15T04:29:01.843Z,90.57
2024-01-15T04:31:29.065Z,91.79
2024-01-15T04:33:59.351Z,92.20
2024-01-15T04:36:26.399Z,93.28
2024-01-15T04:38:56.708Z,95.31
2024-01-15T04:41:23.608Z,97.71
2024-01-15T04:43:50.533Z,100.00
2024-01-15T04:46:17.477Z,100.00
2024-01-15T04:48:44.400Z,100.00
2024-01-15T04:51:12.415Z,100.00
2024-01-15T04:53:40.030Z,100.00
2024-01-15T04:56:07.408Z,100.00
2024-01-15T04:58:34.303Z,100.00
2024-01-15T05:01:01.308Z,100.00
2024-01-15T05:03:31.435Z,100.00
2024-01-15T05:05:58.385Z,100.00
2024-01-15T05:08:25.544Z,100.00
2024-01-15T05:10:52.401Z,100.00
2024-01-15T05:13:22.341Z,100.00
2024-01-15T05:15:49.380Z,100.00
2024-01-15T05:18:20.351Z,100.00
2024-01-15T05:20:47.590Z,100.00
2024-01-15T05:23:14.683Z,100.00
2024-01-15T05:25:41.582Z,99.66
2024-01-15T05:28:11.335Z,98.20
2024-01-15T05:30:38.593Z,97.93
2024-01-15T05:33:06.418Z,97.37
2024-01-15T05:35:33.354Z,98.29
2024-01-15T05:38:00.452Z,97.04
2024-01-15T05:40:27.321Z,97.18
2024-01-15T05:42:54.593Z,97.21
2024-01-15T05:45:24.520Z,96.84
2024-01-15T05:47:51.424Z,96.50
2024-01-15T05:50:18.726Z,96.47
2024-01-15T05:52:45.641Z,95.58
2024-01-15T05:55:12.565Z,95.78
2024-01-15T05:57:42.193Z,94.68
2024-01-15T06:00:10.451Z,94.79
2024-01-15T06:02:42.163Z,93.97
2024-01-15T06:05:09.312Z,93.87
2024-01-15T06:07:37.656Z,93.61
2024-01-15T06:10:08.437Z,93.89
2024-01-15T06:12:35.604Z,93.76
2024-01-15T06:15:02.570Z,93.91
2024-01-15T06:17:29.765Z,94.77
2024-01-15T06:19:56.926Z,93.91
2024-01-15T06:22:23.980Z,94.39
2024-01-15T06:24:51.077Z,94.51
2024-01-15T06:27:20.126Z,94.62
2024-01-15T06:29:59.588Z,94.92
2024-01-15T06:32:29.029Z,94.95
2024-01-15T06:35:02.622Z,95.20
2024-01-15T06:37:33.975Z,95.26
2024-01-15T06:40:01.870Z,96.18
2024-01-15T06:42:28.820Z,95.96
2024-01-15T06:44:57.932Z,96.35
2024-01-15T06:47:27.551Z,98.28
2024-01-15T06:49:54.580Z,98.57
2024-01-15T06:52:22.277Z,99.26
2024-01-15T06:54:52.287Z,98.96
2024-01-15T06:57:22.537Z,98.13
2024-01-15T06:59:50.462Z,99.39
2024-01-15T07:02:17.670Z,100.00
2024-01-15T07:04:44.919Z,100.00
2024-01-15T07:07:17.392Z,100.00
2024-01-15T07:09:44.414Z,100.00
2024-01-15T07:12:11.307Z,99.70
2024-01-15T07:14:38.157Z,98.17
2024-01-15T07:17:05.021Z,97.17
2024-01-15T07:19:32.099Z,96.43
2024-01-15T07:22:02.140Z,96.02
2024-01-15T07:24:29.209Z,95.55
2024-01-15T07:26:56.152Z,95.80
2024-01-15T07:29:26.170Z,95.98
2024-01-15T07:31:56.580Z,95.22
2024-01-15T07:34:23.887Z,95.25
2024-01-15T07:36:56.166Z,96.82
2024-01-15T07:39:26.103Z,97.62
2024-01-15T07:41:53.599Z,98.82
2024-01-15T07:44:20.493Z,99.89
2024-01-15T07:46:50.217Z,100.00
2024-01-15T07:49:20.416Z,100.00
2024-01-15T07:51:47.588Z,100.00
2024-01-15T07:54:17.554Z,100.00
2024-01-15T07:57:01.938Z,100.00
2024-01-15T07:59:30.959Z,100.00
2024-01-15T08:01:57.958Z,100.00
2024-01-15T08:04:27.144Z,100.00
2024-01-15T08:07:00.519Z,99.44
2024-01-15T08:09:27.568Z,98.98
2024-01-15T08:11:54.805Z,98.36
2024-01-15T08:14:21.735Z,97.73
2024-01-15T08:16:48.575Z,98.34
2024-01-15T08:19:16.951Z,97.95
2024-01-15T08:21:44.352Z,99.16
2024-01-15T08:24:13.126Z,98.66
2024-01-15T08:26:39.947Z,98.75
2024-01-15T08:29:06.770Z,97.38
2024-01-15T08:31:33.954Z,96.54
2024-01-15T08:34:04.318Z,95.11
2024-01-15T08:36:35.241Z,94.22
2024-01-15T08:39:04.782Z,92.51
2024-01-15T08:41:35.123Z,92.39
2024-01-15T08:44:02.312Z,90.02
2024-01-15T08:46:51.025Z,90.18
2024-01-15T08:49:18.800Z,90.89
2024-01-15T08:51:45.747Z,90.65
2024-01-15T08:54:12.628Z,89.91
2024-01-15T08:56:39.862Z,89.86
2024-01-15T08:59:06.728Z,88.84
2024-01-15T09:01:34.098Z,89.98
2024-01-15T09:04:01.175Z,91.15
2024-01-15T09:06:28.170Z,91.34
2024-01-15T09:08:58.223Z,91.52
2024-01-15T09:11:26.001Z,90.87
2024-01-15T09:13:55.736Z,91.26
2024-01-15T09:16:22.700Z,91.85
2024-01-15T09:18:49.640Z,92.22
2024-01-15T09:21:19.755Z,91.97
2024-01-15T09:23:50.188Z,90.48
2024-01-15T09:26:18.237Z,89.97
2024-01-15T09:28:45.200Z,89.21
2024-01-15T09:31:14.429Z,88.32
2024-01-15T09:33:41.429Z,88.35
2024-01-15T09:36:11.436Z,88.43
2024-01-15T09:38:46.148Z,87.53
2024-01-15T09:41:13.347Z,86.91
2024-01-15T09:43:40.392Z,87.65
2024-01-15T09:46:10.490Z,88.11
2024-01-15T09:48:38.169Z,88.62
2024-01-15T09:51:07.494Z,89.14
2024-01-15T09:53:35.511Z,88.95
2024-01-15T09:56:02.767Z,90.15
2024-01-15T09:58:31.862Z,88.59
2024-01-15T10:01:06.120Z,88.45
2024-01-15T10:03:35.937Z,87.71
2024-01-15T10:06:03.806Z,87.69
2024-01-15T10:08:35.133Z,87.22
2024-01-15T10:11:01.918Z,88.03
2024-01-15T10:13:31.586Z,88.00
2024-01-15T10:15:59.890Z,87.26
2024-01-15T10:18:26.911Z,86.37
2024-01-15T10:21:03.533Z,85.54
2024-01-15T10:23:31.671Z,84.19
2024-01-15T10:25:59.140Z,84.11
2024-01-15T10:28:31.914Z,83.59
2024-01-15T10:31:03.378Z,82.84
2024-01-15T10:33:30.517Z,82.38
2024-01-15T10:35:59.497Z,82.56
2024-01-15T10:38:28.639Z,80.35
2024-01-15T10:40:56.662Z,80.39
2024-01-15T10:43:29.020Z,80.89
2024-01-15T10:45:57.782Z,82.67
2024-01-15T10:48:24.816Z,83.52
2024-01-15T10:50:52.016Z,82.78
2024-01-15T10:53:19.481Z,80.50
2024-01-15T10:55:49.978Z,78.16
2024-01-15T10:58:19.132Z,76.90
2024-01-15T11:00:46.455Z,76.71
2024-01-15T11:03:14.149Z,77.05
2024-01-15T11:05:44.607Z,75.74
2024-01-15T11:08:15.391Z,70.19
2024-01-15T11:10:50.069Z,70.38
2024-01-15T11:13:27.287Z,69.43
2024-01-15T11:16:08.050Z,68.45
2024-01-15T11:18:48.456Z,69.95
2024-01-15T11:21:29.084Z,70.29
2024-01-15T11:24:00.709Z,68.10
2024-01-15T11:26:49.386Z,65.81
2024-01-15T11:29:30.639Z,70.67
2024-01-15T11:31:58.438Z,69.54
2024-01-15T11:34:51.631Z,73.40
2024-01-15T11:37:22.395Z,74.22
2024-01-15T11:39:53.450Z,75.26
2024-01-15T11:42:21.796Z,76.01
2024-01-15T11:44:50.213Z,77.99
2024-01-15T11:47:17.196Z,78.72
2024-01-15T11:50:07.711Z,78.81
2024-01-15T11:52:37.353Z,79.05
2024-01-15T11:55:20.863Z,78.81
2024-01-15T11:57:59.163Z,78.56
2024-01-15T12:00:26.349Z,78.25
2024-01-15T12:02:53.422Z,78.25
2024-01-15T12:05:21.678Z,78.52
2024-01-15T12:07:51.195Z,78.76
2024-01-15T12:10:20.089Z,79.70
2024-01-15T12:12:59.300Z,80.08
2024-01-15T12:15:28.154Z,81.02
2024-01-15T12:18:00.928Z,82.02
2024-01-15T12:20:32.269Z,82.77
2024-01-15T12:23:02.744Z,82.80
2024-01-15T12:25:35.308Z,83.95
2024-01-15T12:28:03.202Z,84.79
2024-01-15T12:30:33.399Z,85.44
2024-01-15T12:33:06.727Z,85.92
2024-01-15T12:35:35.842Z,84.80
2024-01-15T12:38:08.666Z,84.43
2024-01-15T12:40:38.681Z,83.65
2024-01-15T12:43:08.802Z,82.52
2024-01-15T12:45:37.326Z,81.82
2024-01-15T12:48:05.994Z,80.95
2024-01-15T12:50:39.531Z,79.00
2024-01-15T12:53:06.411Z,73.89
2024-01-15T12:55:40.869Z,72.83
2024-01-15T12:58:08.303Z,73.40
2024-01-15T13:00:35.354Z,73.56
2024-01-15T13:03:07.019Z,73.79
2024-01-15T13:05:35.862Z,75.37
2024-01-15T13:08:02.891Z,76.00
2024-01-15T13:10:36.870Z,76.56
2024-01-15T13:13:08.539Z,78.31
2024-01-15T13:15:36.652Z,78.61
2024-01-15T13:18:11.736Z,79.26
2024-01-15T13:20:39.070Z,80.23
2024-01-15T13:23:06.177Z,81.18
2024-01-15T13:25:35.212Z,81.85
2024-01-15T13:28:02.345Z,81.66
2024-01-15T13:30:29.462Z,82.53
2024-01-15T13:32:58.656Z,82.73
2024-01-15T13:35:26.240Z,82.35
2024-01-15T13:37:54.458Z,81.95
2024-01-15T13:40:21.423Z,82.28
2024-01-15T13:42:49.078Z,82.17
2024-01-15T13:45:16.800Z,81.90
2024-01-15T13:47:45.185Z,81.28
2024-01-15T13:50:12.016Z,81.31
2024-01-15T13:52:39.261Z,81.70
2024-01-15T13:55:08.739Z,83.29
2024-01-15T13:57:36.179Z,88.16
2024-01-15T14:00:03.946Z,91.09
2024-01-15T14:02:30.876Z,89.96
2024-01-15T14:04:57.676Z,91.70
2024-01-15T14:07:24.510Z,92.62
2024-01-15T14:09:51.646Z,93.91
2024-01-15T14:12:18.815Z,95.17
2024-01-15T14:14:46.208Z,96.05
2024-01-15T14:17:13.829Z,98.21
2024-01-15T14:19:41.783Z,98.92
2024-01-15T14:22:08.740Z,99.37
2024-01-15T14:24:35.798Z,100.00
2024-01-15T14:27:02.710Z,100.00
2024-01-15T14:29:29.555Z,100.00
2024-01-15T14:31:56.955Z,100.00
2024-01-15T14:34:25.592Z,100.00
2024-01-15T14:36:58.425Z,100.00
2024-01-15T14:39:27.238Z,100.00
2024-01-15T14:41:55.985Z,100.00
2024-01-15T14:44:22.985Z,100.00
2024-01-15T14:46:50.035Z,100.00
2024-01-15T14:49:19.099Z,100.00
2024-01-15T14:51:46.285Z,99.63
2024-01-15T14:54:16.536Z,99.62
2024-01-15T14:56:44.212Z,97.75
2024-01-15T14:59:11.590Z,97.00
2024-01-15T15:01:41.579Z,96.43
2024-01-15T15:04:12.068Z,95.89
2024-01-15T15:06:41.508Z,96.37
2024-01-15T15:09:11.504Z,95.36
2024-01-15T15:11:38.460Z,92.55
2024-01-15T15:14:08.403Z,93.16
2024-01-15T15:16:35.280Z,92.37
2024-01-15T15:19:02.297Z,92.26
2024-01-15T15:21:30.220Z,90.93
2024-01-15T15:23:57.282Z,90.66
2024-01-15T15:26:26.625Z,92.34
2024-01-15T15:28:53.641Z,90.23
2024-01-15T15:31:20.802Z,89.54
2024-01-15T15:33:47.939Z,88.98
2024-01-15T15:36:14.960Z,88.80
2024-01-15T15:38:41.983Z,88.69
2024-01-15T15:41:09.506Z,89.05
2024-01-15T15:43:36.791Z,87.92
2024-01-15T15:46:04.906Z,87.48
2024-01-15T15:48:35.771Z,87.36
2024-01-15T15:51:04.542Z,87.00
2024-01-15T15:53:31.900Z,86.82
2024-01-15T15:56:00.043Z,86.58
2024-01-15T15:58:26.952Z,86.15
2024-01-15T16:01:00.111Z,85.83
2024-01-15T16:03:34.789Z,86.08
2024-01-15T16:06:01.951Z,85.84
2024-01-15T16:08:28.970Z,85.44
2024-01-15T16:10:58.476Z,85.48
2024-01-15T16:13:25.388Z,84.87
2024-01-15T16:15:52.341Z,85.39
2024-01-15T16:23:21.905Z,85.62
2024-01-15T16:23:36.908Z,84.88
2024-01-15T16:24:23.539Z,84.66
2024-01-15T16:26:58.076Z,84.99
2024-01-15T16:29:25.781Z,84.54
2024-01-15T16:31:55.534Z,84.78
2024-01-15T16:34:22.432Z,84.89
2024-01-15T16:36:49.357Z,84.38
2024-01-15T16:39:16.188Z,85.15
2024-01-15T16:41:43.147Z,84.38
2024-01-15T16:44:10.246Z,83.82
2024-01-15T16:46:37.242Z,84.37
2024-01-15T16:49:09.573Z,83.78
2024-01-15T16:51:38.841Z,84.09
2024-01-15T16:54:06.176Z,83.50
2024-01-15T16:56:33.050Z,83.17
2024-01-15T16:59:00.301Z,82.56
2024-01-15T17:01:30.417Z,82.88
2024-01-15T17:03:57.356Z,82.82
2024-01-15T17:06:29.207Z,82.53
2024-01-15T17:08:59.242Z,82.21
2024-01-15T17:11:26.702Z,82.26
2024-01-15T17:13:53.725Z,82.78
2024-01-15T17:16:22.867Z,82.49
2024-01-15T17:18:50.181Z,82.31
2024-01-15T17:21:17.128Z,82.16
2024-01-15T17:23:44.046Z,81.12
2024-01-15T17:26:14.857Z,80.96
2024-01-15T17:28:41.817Z,80.88
2024-01-15T17:31:11.753Z,81.00
2024-01-15T17:33:38.620Z,80.76
2024-01-15T17:36:07.462Z,80.31
2024-01-15T17:38:37.547Z,80.14
2024-01-15T17:41:04.564Z,79.77
2024-01-15T17:43:31.429Z,79.87
2024-01-15T17:46:02.105Z,79.78
2024-01-15T17:48:32.891Z,80.24
2024-01-15T17:51:04.782Z,80.23
2024-01-15T17:53:34.977Z,79.54
2024-01-15T17:56:02.264Z,79.83
2024-01-15T17:58:33.256Z,79.99
2024-01-15T18:01:03.909Z,79.33
2024-01-15T18:03:30.865Z,79.56
2024-01-15T18:05:57.989Z,79.70
2024-01-15T18:08:30.651Z,79.61
2024-01-15T18:10:57.653Z,78.48
2024-01-15T18:13:24.464Z,79.00
2024-01-15T18:15:57.340Z,78.71
2024-01-15T18:18:27.866Z,79.26
2024-01-15T18:20:55.049Z,78.63
2024-01-15T18:23:21.968Z,78.64
2024-01-15T18:25:49.215Z,78.39
2024-01-15T18:28:16.326Z,78.54
2024-01-15T18:30:46.357Z,78.41
2024-01-15T18:33:16.513Z,78.33
2024-01-15T18:35:43.585Z,78.58
2024-01-15T18:38:10.760Z,79.16
2024-01-15T18:40:38.349Z,79.00
2024-01-15T18:43:06.703Z,78.47
2024-01-15T18:45:37.022Z,79.38
2024-01-15T18:48:04.220Z,78.41
2024-01-15T18:50:31.307Z,77.93
2024-01-15T18:52:58.315Z,77.61
2024-01-15T18:55:25.769Z,77.26
2024-01-15T18:57:52.760Z,77.47
2024-01-15T19:00:22.423Z,77.18
2024-01-15T19:02:49.456Z,77.21
2024-01-15T19:05:16.637Z,76.72
2024-01-15T19:07:47.220Z,77.11
2024-01-15T19:10:14.076Z,77.14
2024-01-15T19:12:40.981Z,77.04
2024-01-15T19:15:11.237Z,76.90
2024-01-15T19:17:39.665Z,76.89
2024-01-15T19:20:08.350Z,76.83
2024-01-15T19:22:35.311Z,76.70
2024-01-15T19:25:02.387Z,76.71
2024-01-15T19:27:30.557Z,76.90
2024-01-15T19:29:57.510Z,76.63
2024-01-15T19:32:24.313Z,76.54
2024-01-15T19:34:52.959Z,76.06
2024-01-15T19:37:19.748Z,76.20
2024-01-15T19:39:46.585Z,76.87
2024-01-15T19:42:14.393Z,77.05
2024-01-15T19:44:41.516Z,77.04
2024-01-15T19:47:08.776Z,77.75
2024-01-15T19:49:35.936Z,77.72
2024-01-15T19:52:02.809Z,78.22
2024-01-15T19:54:29.623Z,77.91
2024-01-15T19:56:56.446Z,77.82
2024-01-15T19:59:23.510Z,77.74
2024-01-15T20:01:50.323Z,77.75
2024-01-15T20:04:17.308Z,78.42
2024-01-15T20:06:44.246Z,79.06
2024-01-15T20:09:11.365Z,78.99
2024-01-15T20:11:38.610Z,78.33
2024-01-15T20:14:08.555Z,78.18
2024-01-15T20:16:35.935Z,78.10
2024-01-15T20:19:02.806Z,77.90
2024-01-15T20:21:30.004Z,78.06
2024-01-15T20:24:01.397Z,77.62
2024-01-15T20:26:31.205Z,77.34
2024-01-15T20:28:58.211Z,77.48
2024-01-15T20:31:25.297Z,77.19
2024-01-15T20:33:53.049Z,77.95
2024-01-15T20:36:19.905Z,77.88
2024-01-15T20:38:48.012Z,77.77
2024-01-15T20:41:17.551Z,78.82
2024-01-15T20:43:45.279Z,80.35
2024-01-15T20:46:12.858Z,79.45
2024-01-15T20:48:40.138Z,78.81
2024-01-15T20:51:07.237Z,79.75
2024-01-15T20:53:34.440Z,79.69
2024-01-15T20:56:01.942Z,79.60
2024-01-15T20:58:30.335Z,79.47
2024-01-15T21:00:57.791Z,79.94
2024-01-15T21:03:25.308Z,80.11
2024-01-15T21:05:52.541Z,80.06
2024-01-15T21:08:19.427Z,78.99
2024-01-15T21:10:46.754Z,79.82
2024-01-15T21:13:13.856Z,80.33
2024-01-15T21:15:43.707Z,80.53
2024-01-15T21:18:10.815Z,80.60
2024-01-15T21:20:37.965Z,80.78
2024-01-15T21:23:05.068Z,80.88
2024-01-15T21:25:32.143Z,79.86
2024-01-15T21:27:58.989Z,79.24
2024-01-15T21:30:26.556Z,78.58
2024-01-15T21:32:53.636Z,78.35
2024-01-15T21:35:20.621Z,78.17
2024-01-15T21:37:47.468Z,77.75
2024-01-15T21:40:14.386Z,77.66
2024-01-15T21:42:41.811Z,77.73
2024-01-15T21:45:09.889Z,77.26
2024-01-15T21:47:40.083Z,77.35
2024-01-15T21:50:10.793Z,77.74
2024-01-15T21:52:38.089Z,76.87
2024-01-15T21:55:07.188Z,76.66
2024-01-15T21:57:34.440Z,76.69
2024-01-15T22:00:04.179Z,76.43
2024-01-15T22:02:34.150Z,76.68
2024-01-15T22:05:01.024Z,76.62
2024-01-15T22:07:28.508Z,76.72
2024-01-15T22:09:55.405Z,76.92
2024-01-15T22:12:22.823Z,76.67
2024-01-15T22:14:49.819Z,76.58
2024-01-15T22:17:17.717Z,76.82
2024-01-15T22:19:44.584Z,76.88
2024-01-15T22:22:12.484Z,76.99
2024-01-15T22:24:39.678Z,77.19
2024-01-15T22:27:10.105Z,76.95
2024-01-15T22:29:37.072Z,77.08
2024-01-15T22:32:04.392Z,77.30
2024-01-15T22:34:31.367Z,77.00
2024-01-15T22:36:58.227Z,77.47
2024-01-15T22:39:25.420Z,77.87
2024-01-15T22:41:52.480Z,77.73
2024-01-15T22:44:19.848Z,77.50
2024-01-15T22:46:46.871Z,78.03
2024-01-15T22:49:14.425Z,77.96
2024-01-15T22:51:41.230Z,78.29
2024-01-15T22:54:08.015Z,78.71
2024-01-15T22:56:34.918Z,77.99
2024-01-15T22:59:01.739Z,78.40
2024-01-15T23:01:29.298Z,77.80
2024-01-15T23:03:56.538Z,78.07
2024-01-15T23:06:23.732Z,78.19
2024-01-15T23:08:50.691Z,78.30
2024-01-15T23:11:17.922Z,78.60
2024-01-15T23:13:45.160Z,79.05
2024-01-15T23:16:15.420Z,78.61
2024-01-15T23:18:43.370Z,78.66
2024-01-15T23:21:10.846Z,78.85
2024-01-15T23:23:37.884Z,79.16
2024-01-15T23:26:04.870Z,78.92
2024-01-15T23:28:33.024Z,78.78
2024-01-15T23:30:59.927Z,78.54
2024-01-15T23:33:26.903Z,78.79
2024-01-15T23:35:56.908Z,78.51
2024-01-15T23:38:26.647Z,78.84
2024-01-15T23:40:53.583Z,78.52
2024-01-15T23:43:20.390Z,78.46
2024-01-15T23:45:51.170Z,77.92
2024-01-15T23:48:22.730Z,78.53
2024-01-15T23:50:49.688Z,77.97
2024-01-15T23:53:16.646Z,77.68
2024-01-15T23:55:43.523Z,77.74
2024-01-15T23:58:10.326Z,78.17
